15
Owner Name: Matusz, Irene Co-owners: Jim   Campo
Registered Name:    Shoreline's Ragapple Kinetic Energy   CRX II,CRX III,WRCh   Call Name:  MrKey
AKC Registration:   HP343204?? CKC Registration:   Sex:   M Dog DOB:   Apr-29-2009 Deceased Dt:  
Name Registration Number Registration Type DOB
Sire: Shoreline's Tomahawk Jet HP077017/01 USA
Dam: Indigo Unsinkbl Eventhorizon HM964307/01 USA
Dog Active?: Yes    Meets Run: 61    Color:   White With:   Black Brindle Breeder:   Alice Mark
Spay/Neuter: No AKC Disqualifications: No Legacy CR Points:  0.000 ARM Points:  0.000 NPR Points:  0.000
Date
(* indicates not verified)
Club Race Type Grade at Meet Start Place-
ment/ Entry
Meet Points WRCh Points WRChX Points Accum. CR Points Accum. WRCh Accum. WRChX Scr/ DQ WRChX by Year
03-20-10 JRRWA Puppy N 1/2 20.000 0.000 0.000 0.000 0.000 0.000 C 4 0.000
03-21-10 JRRWA Puppy N 1/3 18.000 0.000 0.000 0.000 0.000 0.000 C 4 0.000
05-15-10 EWA Puppy N 1/2 20.000 0.000 0.000 0.000 0.000 0.000 C 4 0.000
06-19-10 EWA Puppy N 1/4 18.000 0.000 0.000 0.000 0.000 0.000 C 4 0.000
07-03-10 JRRWA Adult D 23/63 9.000 0.000 0.000 9.000 0.000 0.000 C 4 0.000
08-01-10 NEWC Adult C 12/33 10.000 0.000 0.000 19.000 0.000 0.000 C 4 0.000
09-18-10 EWA Adult C 10/40 11.500 0.000 0.000 30.500 0.000 0.000 C 4 0.000
10-09-10 JRRWA Adult B 6/61 15.000 3.000 0.000 45.500 3.000 0.000 C 4 0.000
10-10-10 JRRWA Adult B 10/41 10.000 0.000 0.000 55.500 3.000 0.000 C 4 0.000
11-20-10 EWA Adult B 6/30 13.500 3.000 0.000 69.000 6.000 0.000 C 4 0.000
03-12-11 JRRWA Adult B 10/30 10.000 0.000 0.000 79.000 6.000 0.000 C 4 0.000
03-13-11 JRRWA Adult B 8/30 11.000 0.667 0.000 90.000 6.667 0.000 C 4 0.000
05-14-11 EWA Adult B 5/21 12.500 2.000 0.000 102.500 8.667 0.000 C 4 0.000
05-28-11 JRRWA Adult B 10/41 11.000 0.000 0.000 113.500 8.667 0.000 C 4 0.000
06-18-11 EWA Adult B 5/24 13.500 3.000 0.000 127.000 11.667 0.000 C 4 0.000
07-02-11 JRRWA Adult B 7/41 14.000 1.333 0.000 141.000 13.000 0.000 C 4 0.000
08-07-11 NEWC Adult B 9/32 11.000 0.000 0.000 152.000 13.000 0.000 C 4 0.000
09-24-11 JRRWA Adult B 4/30 15.000 2.000 0.000 152.000 15.000 0.000 C 4 0.000
09-25-11 JRRWA Adult B 4/24 15.000 0.000 0.000 152.000 15.000 0.000 C 4 0.000
10-01-11 BWC Adult B 40/116 8.000 0.000 0.000 152.000 15.000 0.000 C 4 0.000
10-15-11 EWA Adult B 18/40 6.500 0.000 0.000 152.000 15.000 0.000 SCR 4 0.000
03-10-12 JRRWA Adult B 3/30 18.000 0.000 0.000 152.000 15.000 0.000 C 4 0.000
03-11-12 JRRWA Adult B 16/30 6.500 0.000 0.000 152.000 15.000 0.000 SCR 4 0.000
05-12-12 EWA Adult A 10/20 7.000 0.000 0.000 152.000 15.000 0.000 SCR 3 0.000
05-26-12 JRRWA Adult A 7/31 14.000 0.000 0.000 152.000 15.000 0.000 C 4 0.000
06-16-12 EWA Adult B 19/20 0.000 0.000 0.000 152.000 15.000 0.000 SCR 2 0.000
09-15-12 EWA Adult B 13/24 6.500 0.000 0.000 152.000 15.000 0.000 SCR 3 0.000
10-06-12 JRRWA Adult B 12/16 6.000 0.000 0.000 152.000 15.000 0.000 SCR 3 0.000
10-07-12 JRRWA Adult C 8/30 12.000 0.000 0.000 152.000 15.000 0.000 C 4 0.000
10-13-12 EWA Adult B 11/22 6.000 0.000 0.000 152.000 15.000 0.000 SCR 3 0.000
03-10-13 JRRWA Adult B 15/30 7.000 0.000 0.000 152.000 15.000 0.000 SCR 3 0.000
05-25-13 JRRWA Adult B 16/23 5.000 0.000 0.000 152.000 15.000 0.000 SCR 3 0.000
08-04-13 NEWC Adult C 16/21 6.500 0.000 0.000 152.000 15.000 0.000 SCR 4 0.000
09-08-13 NEWC Adult C 7/17 14.000 0.000 0.000 152.000 15.000 0.000 C 4 0.000
09-21-13 JRRWA Adult B 15/20 3.000 0.000 0.000 152.000 15.000 0.000 SCR 2 0.000
09-22-13 JRRWA Adult B 13/16 3.000 0.000 0.000 152.000 15.000 0.000 SCR 2 0.000
03-08-14 JRRWA Adult B 5/21 14.000 0.000 0.000 152.000 15.000 0.000 C 4 0.000
03-09-14 JRRWA Adult B 15/24 3.000 0.000 0.000 152.000 15.000 0.000 SCR 2 0.000
06-14-14 EWA Adult B 17/20 2.000 0.000 0.000 152.000 15.000 0.000 SCR 2 0.000
09-13-14 EWA Adult B 21/30 3.000 0.000 0.000 152.000 15.000 0.000 SCR 4 0.000
11-15-14 JRRWA Adult D 23/30 3.000 0.000 0.000 152.000 15.000 0.000 SCR 2 0.000
11-16-14 JRRWA Adult D 15/26 5.000 0.000 0.000 152.000 15.000 0.000 SCR 2 0.000
03-15-15 JRRWA Adult D 17/30 5.000 0.000 0.000 152.000 15.000 0.000 SCR 2 0.000
05-09-15 EWA Adult C 17/26 4.000 0.000 0.000 152.000 15.000 0.000 SCR 2 0.000
05-23-15 JRRWA Adult C 16/20 3.000 0.000 0.000 152.000 15.000 0.000 SCR 2 0.000
09-12-15 EWA Adult C 9/22 12.000 0.000 0.000 152.000 15.000 0.000 C 4 0.000
10-10-15 EWA Adult B 22/22 0.000 0.000 0.000 152.000 15.000 0.000 SCR 2 0.000
11-14-15 JRRWA Adult B 23/24 0.000 0.000 0.000 152.000 15.000 0.000 SCR 2 0.000
11-15-15 JRRWA Adult B 28/30 0.000 0.000 0.000 152.000 15.000 0.000 SCR 2 0.000
03-12-16 JRRWA Adult D 21/30 3.000 0.000 0.000 152.000 15.000 0.000 SCR 2 0.000
03-13-16 JRRWA Adult D 19/31 5.000 0.000 0.000 152.000 15.000 0.000 SCR 2 0.000
05-28-16 JRRWA Adult D 13/27 5.000 0.000 0.000 152.000 15.000 0.000 SCR 2 0.000
06-05-16 NEWC Adult C 9/20 5.000 0.000 0.000 152.000 15.000 0.000 SCR 2 0.000
06-18-16 EWA Adult C 18/30 5.000 0.000 0.000 152.000 15.000 0.000 SCR 2 0.000
07-02-16 JRRWA Adult C 33/40 3.000 0.000 0.000 152.000 15.000 0.000 SCR 2 0.000
09-03-16 JRRWA Adult C 27/30 2.000 0.000 0.000 152.000 15.000 0.000 SCR 2 0.000
09-04-16 JRRWA Adult D 17/25 5.000 0.000 0.000 152.000 15.000 0.000 SCR 2 0.000
03-18-17 JRRWA Adult D 16/20 2.000 0.000 0.000 152.000 15.000 0.000 SCR 2 0.000
03-19-17 JRRWA Adult D 18/26 5.000 0.000 0.000 152.000 15.000 0.000 SCR 2 0.000
07-01-17 JRRWA Adult C 33/40 2.000 0.000 0.000 152.000 15.000 0.000 SCR 2 0.000
09-09-17 JRRWA Adult D 24/31 3.000 0.000 0.000 152.000 15.000 0.000 SCR 2 0.000
WRA Awards
Date Award Club
09/24/2011 WRCh JRRWA
06/18/2011 CRX 3 EWA
11/20/2010 CRX 2 EWA






©1998-2017 Whippet Racing Association. All rights reserved. No information provided by this website is to be used without permission from an authorized representative of the WRA.
Logged in as UUnknown (15)